Kuusamo

Airport
ICAO code: 
EFKS
Summary
ICAO Region: 
EUR
Territory: 
Location: 
Kuusamo,
Coordinates: 
Aerial View: 
65° 59' 25" N, 29° 13' 55" E
Airport GND: 
Aircraft Ground De/Anti Icing
Airport RE: 
Landing on Contaminated Runways
Airport WX: 
Freezing Rain
Metar
Observation
EFKS 090050Z AUTO 33004KT 300V010 CAVOK M17/M19 Q1020
Station
Kuusamo
Date/Time
2021-12-09 00:50:00
Wind direction
330°
Wind speed
04 kts
Lowest cloud amount
clouds and visibility OK
Temperature
-17°C
Dew point
-19°C
Humidity
84%
QNH
1020 hPa
Weather condition
n/a

Description

International airport serving Kuusamo in northern Finland.

Climatology

Subarctic climate (Köppen climate classification Dfc) - long, usually very cold winters, and short, cool to mild summers.

Runways

Designator Length Width Surface Rops
12/30 2500 45 ASP Yes/Yes
Airport map: 
Aerial View: 

SKYbrary Partners:

Safety knowledge contributed by: